ADDS METAR Data INFO
IDs: Format: Raw Decoded Include TAF

Data at: 1155 UTC 21 Jun 2018

KTOR 211153Z AUTO 00000KT 10SM CLR 11/11 A3014 RMK AO2 SLP175 70001 T01060106 10128 20094 56004
KTOR 211053Z AUTO 00000KT 10SM CLR 10/10 A3014 RMK AO2 SLP175 T01000100
KTOR 210953Z AUTO 00000KT 10SM CLR 11/10 A3014 RMK AO2 SLP173 T01060100
KTOR 210853Z AUTO 05006KT 10SM CLR 11/11 A3015 RMK AO2 SLP178 T01060106 58005
KTOR 210753Z AUTO 03004KT 10SM SCT035 12/11 A3016 RMK AO2 SLP179 T01170111
KTOR 210653Z AUTO 00000KT 10SM OVC034 12/11 A3017 RMK AO2 SLP184 T01170111 402330083
KTOR 210553Z AUTO 10003KT 10SM CLR 13/11 A3017 RMK AO2 SLP184 T01280111 10222 20122 50004
KTOR 210453Z AUTO 09003KT 10SM CLR 12/11 A3017 RMK AO2 SLP189 T01220111
KTOR 210353Z AUTO 03005KT 10SM CLR 14/12 A3017 RMK AO2 SLP186 T01440122
KTOR 210253Z AUTO 04007KT 10SM CLR 16/12 A3015 RMK AO2 SLP179 T01560122 51011
KTOR 210153Z AUTO 03008KT 10SM FEW060 BKN070 BKN085 19/12 A3015 RMK AO2 SLP177 T01940117
KTOR 210053Z AUTO 02010KT 10SM CLR 21/12 A3013 RMK AO2 SLP170 T02110117
KTOR 202353Z AUTO 02015G20KT 10SM CLR 21/11 A3011 RMK AO2 SLP168 60001 T02110111 10233 20167 58001
KTOR 202253Z AUTO 34011G17KT 10SM FEW047 SCT100 22/09 A3012 RMK AO2 SLP171 T02170094
KTOR 202153Z AUTO 36012G24KT 10SM FEW047 22/09 A3012 RMK AO2 SLP168 T02220089
KTOR 202053Z AUTO 36014G21KT 10SM SCT044 SCT070 23/12 A3012 RMK AO2 SLP168 60001 T02280117 56003
KTOR 201953Z AUTO 33016G24KT 10SM FEW046 SCT090 BKN110 22/11 A3012 RMK AO2 SLP168 T02220106
KTOR 201853Z AUTO 34013G20KT 10SM FEW060 FEW100 21/12 A3012 RMK AO2 RAB25E39 SLP170 P0001 T02060117
KTOR 201753Z AUTO 33015G21KT 10SM FEW033 FEW041 20/12 A3013 RMK AO2 SLP173 T02000117 10200 20089 58000
KTOR 201653Z AUTO 34011G21KT 10SM FEW028 BKN046 19/12 A3013 RMK AO2 SLP173 T01890117
KTOR 201553Z AUTO 34012G21KT 10SM FEW027 BKN037 17/12 A3013 RMK AO2 SLP177 T01720117
KTOR 201453Z AUTO 32011G16KT 10SM CLR 17/12 A3013 RMK AO2 SLP172 T01720122 51007
KTOR 201353Z AUTO VRB05KT 10SM CLR 14/12 A3012 RMK AO2 SLP170 T01390117
KTOR 201253Z AUTO 32008KT 10SM FEW080 12/11 A3012 RMK AO2 SLP174 T01170106
KTOR 201153Z AUTO 30007KT 10SM CLR 09/09 A3011 RMK AO2 SLP174 70008 T00940094 10106 20083 55001
KTOR 201053Z AUTO 27003KT 10SM CLR 09/09 A3010 RMK AO2 SLP176 T00890089
KTOR 200953Z AUTO 31005KT 10SM CLR 09/09 A3010 RMK AO2 SLP174 T00940094
KTOR 200853Z AUTO 31007KT 10SM CLR 09/09 A3011 RMK AO2 SLP175 T00940094 58007
KTOR 200753Z AUTO 31006KT 10SM CLR 10/09 A3012 RMK AO2 SLP177 T01000094
KTOR 200653Z AUTO 28004KT 10SM CLR 10/10 A3013 RMK AO2 SLP179 T01000100 401830100
KTOR 200553Z AUTO 26004KT 10SM CLR 11/10 A3013 RMK AO2 SLP182 T01060100 10183 20106 53017
KTOR 200453Z AUTO 34008KT 10SM CLR 12/10 A3010 RMK AO2 SLP168 T01220100
KTOR 200353Z AUTO 36009KT 10SM CLR 13/12 A3009 RMK AO2 SLP161 T01280122
KTOR 200253Z AUTO 00000KT 10SM CLR 15/12 A3008 RMK AO2 SLP157 T01500122 53003
KTOR 200153Z AUTO 00000KT 10SM CLR 17/12 A3006 RMK AO2 SLP148 T01670117
KTOR 200053Z AUTO 23004KT 10SM CLR 17/11 A3007 RMK AO2 SLP153 T01720111